Time;durP1;ratioP1;P1;durP2;ratioP2;P2;SDS_P1;SDS_P2;PMS_P1;PMS_P2;Temp;Humidity;BMP_temperature;BMP_pressure;BME280_temperature;BME280_humidity;BME280_pressure;Samples;Min_cycle;Max_cycle;Signal;HPM_P1;HPM_P2
2022/04/01 00:00:08;;;;;;;51.55;26.75;;;;;;;-141.50;100.00;63355.56;5123033;28;20792;-78
2022/04/01 00:02:35;;;;;;;50.00;26.75;;;;;;;-141.50;100.00;63355.56;5101640;28;20055;-78
2022/04/01 00:05:06;;;;;;;49.75;25.52;;;;;;;-141.50;100.00;63355.56;5104356;28;20059;-78
2022/04/01 00:07:33;;;;;;;53.60;26.38;;;;;;;-141.50;100.00;63355.56;5103178;28;20044;-77
2022/04/01 00:10:00;;;;;;;52.30;26.45;;;;;;;-141.50;100.00;63355.56;5106773;28;20290;-77
2022/04/01 00:12:27;;;;;;;50.10;26.20;;;;;;;-141.50;100.00;63355.56;5117773;28;20063;-76
2022/04/01 00:14:54;;;;;;;50.85;24.85;;;;;;;-141.50;100.00;63355.56;5126324;28;20048;-78
2022/04/01 00:17:21;;;;;;;51.28;25.10;;;;;;;-141.50;100.00;63355.56;5108815;28;20055;-78
2022/04/01 00:19:47;;;;;;;50.72;24.60;;;;;;;-141.50;100.00;63355.56;5125788;28;20052;-76
2022/04/01 00:22:14;;;;;;;46.17;25.13;;;;;;;-141.50;100.00;63355.56;5109747;28;20056;-77
2022/04/01 00:24:41;;;;;;;48.08;24.70;;;;;;;-141.50;100.00;63355.56;5110967;28;20028;-80
2022/04/01 00:27:07;;;;;;;41.95;22.88;;;;;;;-141.50;100.00;63355.56;5109867;28;20256;-77
2022/04/01 00:29:34;;;;;;;44.83;24.25;;;;;;;-141.50;100.00;63355.56;5108392;28;20052;-77
2022/04/01 00:32:01;;;;;;;41.65;23.20;;;;;;;-141.50;100.00;63355.56;5090015;28;20060;-78
2022/04/01 00:34:34;;;;;;;47.33;24.30;;;;;;;-141.50;100.00;63355.56;5109406;28;20062;-78
2022/04/01 00:37:02;;;;;;;43.60;22.88;;;;;;;-141.50;100.00;63355.56;5085229;28;20110;-77
2022/04/01 00:39:30;;;;;;;42.55;22.13;;;;;;;-141.50;100.00;63355.56;5087621;28;20171;-76
2022/04/01 00:41:59;;;;;;;43.20;23.45;;;;;;;-141.50;100.00;63355.56;5087265;28;20151;-76
2022/04/01 00:44:31;;;;;;;38.35;22.00;;;;;;;-141.50;100.00;63355.56;5086500;28;20044;-78
2022/04/01 00:47:13;;;;;;;42.10;22.20;;;;;;;-141.50;100.00;63355.56;5085299;28;20060;-77
2022/04/01 00:49:42;;;;;;;40.40;21.67;;;;;;;-141.50;100.00;63355.56;5087169;28;20056;-76
2022/04/01 00:52:11;;;;;;;40.78;21.42;;;;;;;-141.50;100.00;63355.56;5069609;28;20056;-78
2022/04/01 00:54:41;;;;;;;41.97;21.20;;;;;;;-141.50;100.00;63355.56;5089817;28;20039;-78
2022/04/01 00:57:13;;;;;;;41.60;21.55;;;;;;;-141.50;100.00;63355.56;5090185;28;20059;-77
2022/04/01 00:59:41;;;;;;;43.80;21.65;;;;;;;-141.50;100.00;63355.56;5091289;28;20079;-77
2022/04/01 01:02:09;;;;;;;44.40;20.80;;;;;;;-141.50;100.00;63355.56;5091327;28;20059;-78
2022/04/01 01:04:37;;;;;;;38.53;20.55;;;;;;;-141.50;100.00;63355.56;5073399;28;20048;-79
2022/04/01 01:07:05;;;;;;;34.47;19.52;;;;;;;-141.50;100.00;63355.56;5092230;28;20060;-78
2022/04/01 01:09:38;;;;;;;37.08;19.25;;;;;;;-141.50;100.00;63355.56;5095092;28;20054;-79
2022/04/01 01:12:06;;;;;;;39.80;19.10;;;;;;;-141.50;100.00;63355.56;5105476;28;20055;-78
2022/04/01 01:14:36;;;;;;;35.33;19.42;;;;;;;-141.50;100.00;63355.56;5132444;28;20051;-78
2022/04/01 01:17:06;;;;;;;41.78;19.42;;;;;;;-141.50;100.00;63355.56;5132450;28;20078;-80
2022/04/01 01:19:32;;;;;;;33.35;18.33;;;;;;;-141.50;100.00;63355.56;5114728;28;20081;-80
2022/04/01 01:21:59;;;;;;;35.30;17.65;;;;;;;-141.50;100.00;63355.56;5125337;28;20415;-77
2022/04/01 01:24:37;;;;;;;33.25;18.25;;;;;;;-141.50;100.00;63355.56;5123749;28;20047;-78
2022/04/01 01:27:08;;;;;;;32.38;16.95;;;;;;;-141.50;100.00;63355.56;5124562;28;20051;-77
2022/04/01 01:29:39;;;;;;;36.70;16.98;;;;;;;-141.50;100.00;63355.56;5122188;28;20044;-78
2022/04/01 01:32:09;;;;;;;34.88;16.58;;;;;;;-141.50;100.00;63355.56;5122361;28;20058;-77
2022/04/01 01:34:36;;;;;;;33.30;15.60;;;;;;;-141.50;100.00;63355.56;5106731;28;20108;-76
2022/04/01 01:37:03;;;;;;;28.23;15.70;;;;;;;-141.50;100.00;63355.56;5128819;28;20080;-77
2022/04/01 01:39:31;;;;;;;33.45;15.60;;;;;;;-141.50;100.00;63355.56;5129251;28;20058;-76
2022/04/01 01:41:58;;;;;;;31.58;15.43;;;;;;;-141.50;100.00;63355.56;5129345;28;20055;-78
2022/04/01 01:44:25;;;;;;;30.00;15.07;;;;;;;-141.50;100.00;63355.56;5129615;28;20272;-78
2022/04/01 01:46:53;;;;;;;33.30;15.63;;;;;;;-141.50;100.00;63355.56;5127423;28;20058;-77
2022/04/01 01:49:21;;;;;;;31.17;14.18;;;;;;;-141.50;100.00;63355.56;5128708;28;20052;-78
2022/04/01 01:54:49;;;;;;;30.23;13.68;;;;;;;-141.50;100.00;63355.56;5128669;28;20047;-77
2022/04/01 01:57:22;;;;;;;29.27;13.65;;;;;;;-141.50;100.00;63355.56;5109438;28;20047;-79
2022/04/01 01:59:50;;;;;;;28.02;13.60;;;;;;;-141.50;100.00;63355.56;5127913;28;20123;-78
2022/04/01 02:02:18;;;;;;;24.65;12.63;;;;;;;-141.50;100.00;63355.56;5126382;28;20054;-78
2022/04/01 02:04:46;;;;;;;26.55;12.65;;;;;;;-141.50;100.00;63355.56;5128439;28;20063;-76
2022/04/01 02:07:12;;;;;;;25.27;11.88;;;;;;;-141.50;100.00;63355.56;5129413;28;20073;-78
2022/04/01 02:09:46;;;;;;;30.08;13.15;;;;;;;-141.50;100.00;63355.56;5124778;28;20032;-77
2022/04/01 02:12:16;;;;;;;21.52;11.88;;;;;;;-141.50;100.00;63355.56;5109813;28;20146;-79
2022/04/01 02:14:43;;;;;;;25.65;11.57;;;;;;;-141.50;100.00;63355.56;5109818;28;20054;-79
2022/04/01 02:17:10;;;;;;;25.75;12.52;;;;;;;-141.50;100.00;63355.56;5107542;28;20058;-77
2022/04/01 02:19:37;;;;;;;23.08;11.00;;;;;;;-141.50;100.00;63355.56;5107646;28;20055;-79
2022/04/01 02:22:05;;;;;;;30.00;12.15;;;;;;;-141.50;100.00;63355.56;5108427;28;20035;-79
2022/04/01 02:24:36;;;;;;;22.67;11.20;;;;;;;-141.50;100.00;63355.56;5109439;28;20066;-77
2022/04/01 02:27:03;;;;;;;18.38;10.38;;;;;;;-141.50;100.00;63355.56;5109273;28;20044;-78
2022/04/01 02:29:29;;;;;;;27.42;10.38;;;;;;;-141.50;100.00;63355.56;5109029;28;20052;-79
2022/04/01 02:31:56;;;;;;;22.35;10.75;;;;;;;-141.50;100.00;63355.56;5107169;28;20143;-78
2022/04/01 02:34:26;;;;;;;27.05;10.80;;;;;;;-141.50;100.00;63355.56;5091210;28;20048;-78
2022/04/01 02:36:58;;;;;;;25.88;10.07;;;;;;;-141.50;100.00;63355.56;5109696;28;20395;-79
2022/04/01 02:39:25;;;;;;;25.85;10.82;;;;;;;-141.50;100.00;63355.56;5088794;28;20044;-79
2022/04/01 02:41:52;;;;;;;24.83;10.50;;;;;;;-141.50;100.00;63355.56;5107699;28;20044;-78
2022/04/01 02:44:18;;;;;;;24.45;9.90;;;;;;;-141.50;100.00;63355.56;5108090;28;20056;-76
2022/04/01 02:46:46;;;;;;;24.60;10.23;;;;;;;-141.50;100.00;63355.56;5107166;28;20048;-77
2022/04/01 02:49:16;;;;;;;21.60;9.50;;;;;;;-141.50;100.00;63355.56;5108719;28;20086;-78
2022/04/01 02:51:45;;;;;;;24.70;10.25;;;;;;;-141.50;100.00;63355.56;5110021;28;20044;-77
2022/04/01 02:54:13;;;;;;;22.58;9.43;;;;;;;-141.50;100.00;63355.56;5110888;28;20048;-80
2022/04/01 02:56:41;;;;;;;20.42;9.73;;;;;;;-141.50;100.00;63355.56;5110719;28;20056;-79
2022/04/01 02:59:09;;;;;;;26.23;9.80;;;;;;;-141.50;100.00;63355.56;5110994;28;20082;-79
2022/04/01 03:01:37;;;;;;;22.25;10.38;;;;;;;-141.50;100.00;63355.56;5110808;28;20048;-78
2022/04/01 03:04:11;;;;;;;22.98;9.77;;;;;;;-141.50;100.00;63355.56;5107491;28;20056;-77
2022/04/01 03:06:43;;;;;;;26.55;9.30;;;;;;;-141.50;100.00;63355.56;5109138;28;20044;-77
2022/04/01 03:09:10;;;;;;;21.30;9.77;;;;;;;-141.50;100.00;63355.56;5107934;28;20052;-79
2022/04/01 03:11:38;;;;;;;22.88;9.80;;;;;;;-141.50;100.00;63355.56;5115801;28;20062;-79
2022/04/01 03:14:06;;;;;;;23.92;9.35;;;;;;;-141.50;100.00;63355.56;5129475;28;20051;-77
2022/04/01 03:16:33;;;;;;;20.55;8.73;;;;;;;-141.50;100.00;63355.56;5127361;28;20048;-78
2022/04/01 03:19:00;;;;;;;22.92;8.80;;;;;;;-141.50;100.00;63355.56;5127199;28;20047;-80
2022/04/01 03:21:29;;;;;;;23.70;8.82;;;;;;;-141.50;100.00;63355.56;5122021;28;20051;-76
2022/04/01 03:23:56;;;;;;;20.23;8.73;;;;;;;-141.50;100.00;63355.56;5105823;28;20044;-79
2022/04/01 03:26:23;;;;;;;19.95;8.75;;;;;;;-141.50;100.00;63355.56;5101367;28;20052;-77
2022/04/01 03:28:49;;;;;;;23.55;8.85;;;;;;;-141.50;100.00;63355.56;5100604;28;20340;-78
2022/04/01 03:31:16;;;;;;;17.92;8.48;;;;;;;-141.50;100.00;63355.56;5099083;28;20051;-78
2022/04/01 03:33:43;;;;;;;19.30;8.65;;;;;;;-141.50;100.00;63355.56;5085079;28;20090;-78
2022/04/01 03:36:13;;;;;;;22.20;8.88;;;;;;;-141.50;100.00;63355.56;5103385;28;20048;-76
2022/04/01 03:38:40;;;;;;;17.58;8.27;;;;;;;-141.50;100.00;63355.56;5097604;28;20785;-78
2022/04/01 03:41:08;;;;;;;22.23;8.52;;;;;;;-141.50;100.00;63355.56;5103809;28;20048;-78
2022/04/01 03:43:37;;;;;;;24.20;8.60;;;;;;;-141.50;100.00;63355.56;5127013;28;20483;-78
2022/04/01 03:46:15;;;;;;;21.20;8.70;;;;;;;-141.50;100.00;63355.56;5129483;28;20075;-77
2022/04/01 03:48:52;;;;;;;18.67;8.05;;;;;;;-141.50;100.00;63355.56;5124363;28;20289;-79
2022/04/01 03:51:22;;;;;;;19.92;8.60;;;;;;;-141.50;100.00;63355.56;5111161;28;20052;-77
2022/04/01 03:54:01;;;;;;;22.90;8.05;;;;;;;-141.50;100.00;63355.56;5086860;28;20048;-79
2022/04/01 03:56:31;;;;;;;18.00;7.43;;;;;;;-141.50;100.00;63355.56;5087750;28;20044;-77
2022/04/01 03:59:01;;;;;;;19.35;8.50;;;;;;;-141.50;100.00;63355.56;5071835;28;20028;-80
2022/04/01 04:01:27;;;;;;;19.67;7.25;;;;;;;-141.50;100.00;63355.56;5089290;28;20079;-78
2022/04/01 04:03:56;;;;;;;24.25;7.65;;;;;;;-141.50;100.00;63355.56;5090237;28;20055;-77
2022/04/01 04:06:26;;;;;;;22.50;7.47;;;;;;;-141.50;100.00;63355.56;5093561;28;20245;-77
2022/04/01 04:08:57;;;;;;;25.92;7.55;;;;;;;-141.50;100.00;63355.56;5110011;28;20548;-75
2022/04/01 04:11:26;;;;;;;16.98;7.18;;;;;;;-141.50;100.00;63355.56;5110292;28;20055;-77
2022/04/01 04:13:55;;;;;;;19.85;7.45;;;;;;;-141.50;100.00;63355.56;5108746;28;20063;-77
2022/04/01 04:16:25;;;;;;;16.77;7.18;;;;;;;-141.50;100.00;63355.56;5101902;28;20048;-79
2022/04/01 04:19:03;;;;;;;14.00;6.55;;;;;;;-141.50;100.00;63355.56;5093088;28;20058;-80
2022/04/01 04:21:31;;;;;;;17.10;6.38;;;;;;;-141.50;100.00;63355.56;5112588;28;20242;-77
2022/04/01 04:24:01;;;;;;;16.58;6.72;;;;;;;-141.50;100.00;63355.56;5110517;28;20458;-80
2022/04/01 04:26:35;;;;;;;14.25;5.88;;;;;;;-141.50;100.00;63355.56;5110435;28;20055;-76
2022/04/01 04:29:09;;;;;;;14.40;6.47;;;;;;;-141.50;100.00;63355.56;5095517;28;20551;-79
2022/04/01 04:31:37;;;;;;;15.63;6.15;;;;;;;-141.50;100.00;63355.56;5090169;28;20094;-77
2022/04/01 04:34:08;;;;;;;17.98;6.25;;;;;;;-141.50;100.00;63355.56;5091805;28;20158;-78
2022/04/01 04:36:38;;;;;;;19.73;5.80;;;;;;;-141.50;100.00;63355.56;5097601;28;20044;-79
2022/04/01 04:39:16;;;;;;;16.27;6.32;;;;;;;-141.50;100.00;63355.56;5112512;28;20052;-78
2022/04/01 04:41:43;;;;;;;13.40;6.20;;;;;;;-141.50;100.00;63355.56;5112930;28;20044;-79
2022/04/01 04:44:10;;;;;;;16.67;5.82;;;;;;;-141.50;100.00;63355.56;5112724;28;20073;-78
2022/04/01 04:46:41;;;;;;;12.50;5.35;;;;;;;-141.50;100.00;63355.56;5111419;28;20063;-79
2022/04/01 04:49:09;;;;;;;9.90;5.07;;;;;;;-141.50;100.00;63355.56;5111907;28;20048;-79
2022/04/01 04:51:37;;;;;;;16.40;5.28;;;;;;;-141.50;100.00;63355.56;5111501;28;20067;-78
2022/04/01 04:54:05;;;;;;;13.35;4.97;;;;;;;-141.50;100.00;63355.56;5111566;28;20048;-78
2022/04/01 04:56:32;;;;;;;13.55;5.20;;;;;;;-141.50;100.00;63355.56;5110051;28;20032;-77
2022/04/01 04:59:01;;;;;;;12.77;5.88;;;;;;;-141.50;100.00;63355.56;5108552;28;20063;-79
2022/04/01 05:01:38;;;;;;;17.88;5.63;;;;;;;-141.50;100.00;63355.56;5089206;28;20112;-78
2022/04/01 05:04:25;;;;;;;14.75;5.07;;;;;;;-141.50;100.00;63355.56;5106096;28;20175;-78
2022/04/01 05:07:13;;;;;;;21.80;5.80;;;;;;;-141.50;100.00;63355.56;5107226;28;20051;-77
2022/04/01 05:10:03;;;;;;;13.57;5.03;;;;;;;-141.50;100.00;63355.56;5106525;28;20051;-78
2022/04/01 05:12:33;;;;;;;17.42;5.63;;;;;;;-141.50;100.00;63355.56;5107956;28;20050;-78
2022/04/01 05:15:09;;;;;;;13.68;5.03;;;;;;;-141.50;100.00;63355.56;5102810;28;20078;-78
2022/04/01 05:17:43;;;;;;;11.30;4.68;;;;;;;-141.50;100.00;63355.56;5099707;28;20062;-79
2022/04/01 05:20:16;;;;;;;12.48;4.55;;;;;;;-141.50;100.00;63355.56;5101802;28;20170;-77
2022/04/01 05:23:15;;;;;;;14.77;4.85;;;;;;;-141.50;100.00;63355.56;5099221;28;20047;-78
2022/04/01 05:26:13;;;;;;;14.93;5.22;;;;;;;-141.50;100.00;63355.56;5087652;28;20055;-78
2022/04/01 05:28:45;;;;;;;17.40;4.82;;;;;;;-141.50;100.00;63355.56;5077234;28;20599;-79
2022/04/01 05:31:25;;;;;;;10.52;5.18;;;;;;;-141.50;100.00;63355.56;5094112;28;20056;-79
2022/04/01 05:34:09;;;;;;;13.48;5.30;;;;;;;-141.50;100.00;63355.56;5096870;28;20048;-78
2022/04/01 05:36:41;;;;;;;9.80;4.60;;;;;;;-141.50;100.00;63355.56;5088558;28;20175;-76
2022/04/01 05:39:11;;;;;;;15.65;5.15;;;;;;;-141.50;100.00;63355.56;5106986;28;20475;-79
2022/04/01 05:41:38;;;;;;;21.85;5.75;;;;;;;-141.50;100.00;63355.56;5123042;28;20090;-77
2022/04/01 05:44:09;;;;;;;15.95;4.97;;;;;;;-141.50;100.00;63355.56;5113386;28;20052;-77
2022/04/01 05:46:37;;;;;;;16.45;6.13;;;;;;;-141.50;100.00;63355.56;5092308;28;20070;-79
2022/04/01 05:49:05;;;;;;;14.15;5.45;;;;;;;-141.50;100.00;63355.56;5106705;28;20077;-76
2022/04/01 05:51:33;;;;;;;17.35;4.93;;;;;;;-141.50;100.00;63355.56;5111802;28;20052;-78
2022/04/01 05:54:01;;;;;;;16.00;5.07;;;;;;;-141.50;100.00;63355.56;5124350;28;20051;-79
2022/04/01 05:56:31;;;;;;;12.00;5.05;;;;;;;-141.50;100.00;63355.56;5123589;28;20058;-75
2022/04/01 05:58:58;;;;;;;12.40;5.50;;;;;;;-141.50;100.00;63355.56;5107393;28;20101;-75
2022/04/01 06:01:47;;;;;;;18.05;5.53;;;;;;;-141.50;100.00;63355.56;5094005;28;20093;-76
2022/04/01 06:04:40;;;;;;;16.45;5.38;;;;;;;-141.50;100.00;63355.56;5096179;28;20052;-79
2022/04/01 06:07:11;;;;;;;17.15;5.80;;;;;;;-141.50;100.00;63355.56;5100883;28;20124;-76
2022/04/01 06:09:51;;;;;;;15.40;6.10;;;;;;;-141.50;100.00;63355.56;5103249;28;20071;-75
2022/04/01 06:12:44;;;;;;;14.98;5.90;;;;;;;-141.50;100.00;63355.56;5090575;28;20073;-78
2022/04/01 06:15:20;;;;;;;16.65;6.38;;;;;;;-141.50;100.00;63355.56;5119209;28;20055;-77
2022/04/01 06:18:05;;;;;;;;;;;;;;;-141.50;100.00;63355.56;5122901;28;20055;-77
2022/04/01 06:20:34;;;;;;;20.70;6.10;;;;;;;-141.50;100.00;63355.56;5120612;28;19931;-76
2022/04/01 06:23:19;;;;;;;18.13;5.90;;;;;;;-141.50;100.00;63355.56;5125137;28;20050;-79
2022/04/01 06:25:52;;;;;;;16.35;6.07;;;;;;;-141.50;100.00;63355.56;5108874;28;20152;-77
2022/04/01 06:28:25;;;;;;;17.40;6.20;;;;;;;-141.50;100.00;63355.56;5101021;28;20171;-77
2022/04/01 06:30:55;;;;;;;15.50;6.18;;;;;;;-141.50;100.00;63355.56;5101029;28;20120;-77
2022/04/01 06:33:49;;;;;;;17.25;6.43;;;;;;;-141.50;100.00;63355.56;5110624;28;20048;-77
2022/04/01 06:36:28;;;;;;;13.85;6.28;;;;;;;-141.50;100.00;63355.56;5098189;28;20097;-78
2022/04/01 06:38:59;;;;;;;15.68;5.82;;;;;;;-141.50;100.00;63355.56;5100445;28;20120;-78
2022/04/01 06:41:31;;;;;;;14.43;5.85;;;;;;;-141.50;100.00;63355.56;5098882;28;20146;-79
2022/04/01 06:43:58;;;;;;;12.75;6.22;;;;;;;-141.50;100.00;63355.56;5096793;28;20081;-77
2022/04/01 06:46:26;;;;;;;12.90;5.97;;;;;;;-141.50;100.00;63355.56;5094078;28;20143;-76
2022/04/01 06:48:52;;;;;;;22.63;6.72;;;;;;;-141.50;100.00;63355.56;5092689;28;20135;-76
2022/04/01 06:51:19;;;;;;;18.48;6.65;;;;;;;-141.50;100.00;63355.56;5094659;28;20043;-76
2022/04/01 06:53:46;;;;;;;22.63;6.90;;;;;;;-141.50;100.00;63355.56;5094756;28;20107;-78
2022/04/01 06:56:12;;;;;;;13.65;6.47;;;;;;;-141.50;100.00;63355.56;5096431;28;20048;-77
2022/04/01 06:58:40;;;;;;;13.88;7.47;;;;;;;-141.50;100.00;63355.56;5102798;28;20055;-78
2022/04/01 07:01:07;;;;;;;16.80;7.50;;;;;;;-141.50;100.00;63355.56;5101885;28;20201;-79
2022/04/01 07:03:35;;;;;;;18.88;7.63;;;;;;;-141.50;100.00;63355.56;5101919;28;20050;-78
2022/04/01 07:06:04;;;;;;;18.27;7.97;;;;;;;-141.50;100.00;63355.56;5118417;28;20052;-76
2022/04/01 07:08:31;;;;;;;15.93;7.45;;;;;;;-141.50;100.00;63355.56;5108748;28;20062;-78
2022/04/01 07:10:58;;;;;;;22.10;8.73;;;;;;;-141.50;100.00;63355.56;5124439;28;20048;-78
2022/04/01 07:13:24;;;;;;;22.33;8.93;;;;;;;-141.50;100.00;63355.56;5118392;28;20112;-78
2022/04/01 07:15:51;;;;;;;17.60;8.18;;;;;;;-141.50;100.00;63355.56;5122029;28;20472;-76
2022/04/01 07:18:18;;;;;;;20.73;8.70;;;;;;;-141.50;100.00;63355.56;5123387;28;20046;-77
2022/04/01 07:20:48;;;;;;;18.98;8.60;;;;;;;-141.50;100.00;63355.56;5122339;28;20105;-79
2022/04/01 07:23:15;;;;;;;19.00;9.40;;;;;;;-141.50;100.00;63355.56;5096423;28;20059;-76
2022/04/01 07:25:42;;;;;;;15.93;9.65;;;;;;;-141.50;100.00;63355.56;5115078;28;20048;-76
2022/04/01 07:28:09;;;;;;;17.70;9.10;;;;;;;-141.50;100.00;63355.56;5120020;28;20161;-78
2022/04/01 07:30:37;;;;;;;19.33;9.70;;;;;;;-141.50;100.00;63355.56;5095440;28;20052;-75
2022/04/01 07:33:04;;;;;;;16.90;9.77;;;;;;;-141.50;100.00;63355.56;5089998;28;20106;-76
2022/04/01 07:35:31;;;;;;;21.98;11.77;;;;;;;-141.50;100.00;63355.56;5090748;28;20091;-76
2022/04/01 07:37:57;;;;;;;19.85;10.73;;;;;;;-141.50;100.00;63355.56;5073288;28;20075;-77
2022/04/01 07:40:24;;;;;;;23.25;11.88;;;;;;;-141.50;100.00;63355.56;5090419;28;20047;-77
2022/04/01 07:42:52;;;;;;;22.25;12.45;;;;;;;-141.50;100.00;63355.56;5071943;28;20083;-75
2022/04/01 07:45:19;;;;;;;28.98;12.13;;;;;;;-141.50;100.00;63355.56;5090199;28;20079;-77
2022/04/01 07:47:48;;;;;;;24.35;13.00;;;;;;;-141.50;100.00;63355.56;5091080;28;20105;-76
2022/04/01 07:50:17;;;;;;;19.77;12.13;;;;;;;-141.50;100.00;63355.56;5090477;28;20157;-76
2022/04/01 07:52:44;;;;;;;25.20;13.07;;;;;;;-141.50;100.00;63355.56;5089836;28;20436;-76
2022/04/01 07:55:13;;;;;;;20.70;11.90;;;;;;;-141.50;100.00;63355.56;5090960;28;20073;-78
2022/04/01 07:57:41;;;;;;;26.60;11.02;;;;;;;-141.50;100.00;63355.56;5090855;28;20242;-74
2022/04/01 08:00:15;;;;;;;21.80;12.60;;;;;;;-141.50;100.00;63355.56;5100699;28;20143;-77
2022/04/01 08:02:42;;;;;;;21.73;11.68;;;;;;;-141.50;100.00;63355.56;5089593;28;20060;-77
2022/04/01 08:05:09;;;;;;;22.08;12.25;;;;;;;-141.50;100.00;63355.56;5094225;28;20145;-77
2022/04/01 08:07:36;;;;;;;26.10;11.90;;;;;;;-141.50;100.00;63355.56;5091877;28;20074;-76
2022/04/01 08:10:04;;;;;;;21.92;11.68;;;;;;;-141.50;100.00;63355.56;5092821;28;20506;-77
2022/04/01 08:12:40;;;;;;;23.00;11.55;;;;;;;-141.50;100.00;63355.56;5075481;28;20048;-76
2022/04/01 08:15:07;;;;;;;22.50;11.85;;;;;;;-141.50;100.00;63355.56;5088854;28;20087;-76
2022/04/01 08:17:34;;;;;;;19.85;11.27;;;;;;;-141.50;100.00;63355.56;5090322;28;20074;-76
2022/04/01 08:20:01;;;;;;;30.10;12.55;;;;;;;-141.50;100.00;63355.56;5089544;28;20054;-77
2022/04/01 08:22:28;;;;;;;24.00;11.82;;;;;;;-141.50;100.00;63355.56;5088917;28;20047;-76
2022/04/01 08:24:56;;;;;;;20.83;11.63;;;;;;;-141.50;100.00;63355.56;5092084;28;20109;-77
2022/04/01 08:27:22;;;;;;;22.75;11.70;;;;;;;-141.50;100.00;63355.56;5110168;28;20052;-76
2022/04/01 08:29:49;;;;;;;20.50;11.80;;;;;;;-141.50;100.00;63355.56;5109294;28;20683;-76
2022/04/01 08:32:15;;;;;;;25.83;11.63;;;;;;;-141.50;100.00;63355.56;5108567;28;20043;-77
2022/04/01 08:34:42;;;;;;;25.40;11.02;;;;;;;-141.50;100.00;63355.56;5109505;28;20051;-76
2022/04/01 08:37:09;;;;;;;21.73;11.35;;;;;;;-141.50;100.00;63355.56;5109748;28;20096;-77
2022/04/01 08:39:36;;;;;;;19.77;11.15;;;;;;;-141.50;100.00;63355.56;5109829;28;20047;-76
2022/04/01 08:42:04;;;;;;;22.83;11.43;;;;;;;-141.50;100.00;63355.56;5109007;28;20043;-76
2022/04/01 08:44:30;;;;;;;19.77;11.45;;;;;;;-141.50;100.00;63355.56;5095909;28;20084;-77
2022/04/01 08:46:57;;;;;;;24.20;12.43;;;;;;;-141.50;100.00;63355.56;5089224;28;20075;-76
2022/04/01 08:49:23;;;;;;;25.83;14.23;;;;;;;-141.50;100.00;63355.56;5092462;28;20079;-76
2022/04/01 08:51:50;;;;;;;26.50;13.43;;;;;;;-141.50;100.00;63355.56;5092829;28;20063;-78
2022/04/01 08:54:18;;;;;;;26.45;14.45;;;;;;;-141.50;100.00;63355.56;5091346;28;20081;-77
2022/04/01 08:56:44;;;;;;;26.33;14.07;;;;;;;-141.50;100.00;63355.56;5072920;28;20064;-77
2022/04/01 08:59:12;;;;;;;23.52;13.95;;;;;;;-141.50;100.00;63355.56;5091820;28;20519;-77
2022/04/01 09:01:43;;;;;;;22.08;12.70;;;;;;;-141.50;100.00;63355.56;5100241;28;20052;-77
2022/04/01 09:04:18;;;;;;;22.92;12.32;;;;;;;-141.50;100.00;63355.56;5092117;28;20136;-77
2022/04/01 09:06:45;;;;;;;25.10;12.10;;;;;;;-141.50;100.00;63355.56;5072524;28;20117;-76
2022/04/01 09:09:26;;;;;;;20.73;11.50;;;;;;;-141.50;100.00;63355.56;5090300;28;20066;-76
2022/04/01 09:12:12;;;;;;;24.25;11.48;;;;;;;-141.50;100.00;63355.56;5095645;28;20052;-77
2022/04/01 09:14:40;;;;;;;20.13;11.23;;;;;;;-141.50;100.00;63355.56;5068477;28;20060;-79
2022/04/01 09:17:10;;;;;;;21.10;11.20;;;;;;;-141.50;100.00;63355.56;5067766;28;20102;-77
2022/04/01 09:19:41;;;;;;;21.95;11.45;;;;;;;-141.50;100.00;63355.56;5067815;28;20494;-78
2022/04/01 09:22:24;;;;;;;19.50;11.55;;;;;;;-141.50;100.00;63355.56;5088988;28;20056;-77
2022/04/01 09:25:03;;;;;;;19.23;10.57;;;;;;;-141.50;100.00;63355.56;5089054;28;20139;-77
2022/04/01 09:27:37;;;;;;;19.27;11.40;;;;;;;-141.50;100.00;63355.56;5071141;28;20123;-75
2022/04/01 09:30:05;;;;;;;24.13;11.55;;;;;;;-141.50;100.00;63355.56;5088172;28;20090;-78
2022/04/01 09:32:49;;;;;;;21.63;10.90;;;;;;;-141.50;100.00;63355.56;5087508;28;20086;-76
2022/04/01 09:35:22;;;;;;;26.73;11.57;;;;;;;-141.50;100.00;63355.56;5079294;28;20047;-77
2022/04/01 09:37:59;;;;;;;20.63;10.40;;;;;;;-141.50;100.00;63355.56;5102246;28;20047;-76
2022/04/01 09:40:26;;;;;;;22.10;10.23;;;;;;;-141.50;100.00;63355.56;5085701;28;20401;-78
2022/04/01 09:42:55;;;;;;;19.35;10.43;;;;;;;-141.50;100.00;63355.56;5088328;28;20159;-78
2022/04/01 09:45:35;;;;;;;23.27;10.77;;;;;;;-141.50;100.00;63355.56;5087674;28;20133;-77
2022/04/01 09:48:06;;;;;;;18.77;10.30;;;;;;;-141.50;100.00;63355.56;5095487;28;20442;-77
2022/04/01 09:50:34;;;;;;;18.70;10.20;;;;;;;-141.50;100.00;63355.56;5107582;28;20054;-76
2022/04/01 09:53:07;;;;;;;19.33;10.15;;;;;;;-141.50;100.00;63355.56;5088923;28;20523;-77
2022/04/01 09:55:38;;;;;;;20.70;9.65;;;;;;;-141.50;100.00;63355.56;5088822;28;20088;-77
2022/04/01 09:58:06;;;;;;;22.05;12.20;;;;;;;-141.50;100.00;63355.56;5088256;28;20048;-78
2022/04/01 10:00:34;;;;;;;21.83;10.25;;;;;;;-141.50;100.00;63355.56;5087209;28;20056;-78
2022/04/01 10:03:01;;;;;;;20.55;10.57;;;;;;;-141.50;100.00;63355.56;5087964;28;20056;-76
2022/04/01 10:05:28;;;;;;;24.08;10.65;;;;;;;-141.50;100.00;63355.56;5088612;28;20055;-79
2022/04/01 10:07:56;;;;;;;19.52;10.40;;;;;;;-141.50;100.00;63355.56;5088618;28;20043;-75
2022/04/01 10:10:27;;;;;;;18.88;10.23;;;;;;;-141.50;100.00;63355.56;5075681;28;20546;-77
2022/04/01 10:13:00;;;;;;;16.13;9.90;;;;;;;-141.50;100.00;63355.56;5096436;28;20096;-77
2022/04/01 10:15:29;;;;;;;19.80;10.52;;;;;;;-141.50;100.00;63355.56;5096732;28;20075;-76
2022/04/01 10:17:57;;;;;;;17.27;10.23;;;;;;;-141.50;100.00;63355.56;5107131;28;20052;-77
2022/04/01 10:20:31;;;;;;;21.08;10.98;;;;;;;-141.50;100.00;63355.56;5079142;28;20074;-77
2022/04/01 10:23:00;;;;;;;23.15;10.30;;;;;;;-141.50;100.00;63355.56;5093984;28;20084;-77
2022/04/01 10:25:46;;;;;;;22.23;11.88;;;;;;;-141.50;100.00;63355.56;5093373;28;20123;-76
2022/04/01 10:28:14;;;;;;;21.52;9.90;;;;;;;-141.50;100.00;63355.56;5071141;28;20048;-77
2022/04/01 10:30:50;;;;;;;21.83;12.05;;;;;;;-141.50;100.00;63355.56;5082495;28;20066;-78
2022/04/01 10:33:38;;;;;;;21.02;12.05;;;;;;;-141.50;100.00;63355.56;5086122;28;20764;-75
2022/04/01 10:36:34;;;;;;;20.90;11.65;;;;;;;-141.50;100.00;63355.56;5068411;28;20068;-77
2022/04/01 10:39:07;;;;;;;20.13;11.57;;;;;;;-141.50;100.00;63355.56;5070602;28;20064;-78
2022/04/01 10:41:33;;;;;;;21.60;12.00;;;;;;;-141.50;100.00;63355.56;5085142;28;20127;-80
2022/04/01 10:44:03;;;;;;;21.65;12.95;;;;;;;-141.50;100.00;63355.56;5085083;28;20079;-78
2022/04/01 10:46:30;;;;;;;24.20;12.15;;;;;;;-141.50;100.00;63355.56;5084746;28;20056;-77
2022/04/01 10:52:18;;;;;;;24.77;13.43;;;;;;;-141.50;100.00;63355.56;5070973;28;20420;-78
2022/04/01 10:54:47;;;;;;;22.08;12.75;;;;;;;-141.50;100.00;63355.56;5089887;28;20060;-77
2022/04/01 10:57:40;;;;;;;22.85;13.02;;;;;;;-141.50;100.00;63355.56;5089681;28;20075;-76
2022/04/01 11:00:13;;;;;;;23.38;12.13;;;;;;;-141.50;100.00;63355.56;5080961;28;20052;-76
2022/04/01 11:02:44;;;;;;;17.75;10.90;;;;;;;-141.50;100.00;63355.56;5118987;28;20063;-76
2022/04/01 11:05:26;;;;;;;20.88;11.35;;;;;;;-141.50;100.00;63355.56;5114071;28;20135;-78
2022/04/01 11:08:15;;;;;;;21.65;10.93;;;;;;;-141.50;100.00;63355.56;5101369;28;20050;-77
2022/04/01 11:11:09;;;;;;;23.77;12.00;;;;;;;-141.50;100.00;63355.56;5083530;28;20116;-76
2022/04/01 11:13:37;;;;;;;20.30;10.18;;;;;;;-141.50;100.00;63355.56;5098096;28;20052;-77
2022/04/01 11:16:25;;;;;;;26.67;10.55;;;;;;;-141.50;100.00;63355.56;5099576;28;20515;-77
2022/04/01 11:19:18;;;;;;;17.77;9.32;;;;;;;-141.50;100.00;63355.56;5109551;28;20047;-76